Time;durP1;ratioP1;P1;durP2;ratioP2;P2;SDS_P1;SDS_P2;PMS_P1;PMS_P2;Temp;Humidity;BMP_temperature;BMP_pressure;BME280_temperature;BME280_humidity;BME280_pressure;Samples;Min_cycle;Max_cycle;Signal;HPM_P1;HPM_P2
2021/05/29 00:01:18;;;;;;;4.50;2.80;;;;;;;14.04;78.55;100833.00;621955;225;33557;-78
2021/05/29 00:03:46;;;;;;;4.00;3.00;;;;;;;14.03;78.04;100828.25;633888;224;32675;-78
2021/05/29 00:06:14;;;;;;;3.67;3.00;;;;;;;13.71;79.97;100833.23;646420;220;23790;-77
2021/05/29 00:08:42;;;;;;;4.10;3.10;;;;;;;13.85;79.29;100838.75;637611;220;32836;-77
2021/05/29 00:11:10;;;;;;;4.33;2.60;;;;;;;13.63;80.76;100845.24;640703;221;23740;-77
2021/05/29 00:13:39;;;;;;;2.47;2.37;;;;;;;13.54;80.34;100838.31;627672;225;24967;-78
2021/05/29 00:16:08;;;;;;;4.20;2.42;;;;;;;13.98;77.67;100823.16;639596;218;33084;-78
2021/05/29 00:18:35;;;;;;;4.70;2.52;;;;;;;14.13;77.03;100817.70;623510;225;32970;-77
2021/05/29 00:21:03;;;;;;;2.77;2.55;;;;;;;14.25;76.86;100822.54;634504;220;33009;-77
2021/05/29 00:23:31;;;;;;;2.47;2.10;;;;;;;13.85;78.03;100827.47;650961;220;22770;-77
2021/05/29 00:25:59;;;;;;;3.30;2.50;;;;;;;13.76;78.60;100822.65;651819;220;23911;-77
2021/05/29 00:28:27;;;;;;;3.67;2.90;;;;;;;13.50;80.73;100834.81;645626;220;24867;-77
2021/05/29 00:30:55;;;;;;;2.97;2.60;;;;;;;13.47;80.85;100834.64;628215;225;23970;-77
2021/05/29 00:33:23;;;;;;;9.50;2.57;;;;;;;13.57;79.56;100831.48;637683;224;24949;-77
2021/05/29 00:35:51;;;;;;;8.10;2.70;;;;;;;13.63;79.48;100832.17;647552;220;23927;-77
2021/05/29 00:38:19;;;;;;;3.93;2.87;;;;;;;13.50;80.76;100831.72;642611;221;24951;-78
2021/05/29 00:40:48;;;;;;;3.77;2.80;;;;;;;13.37;82.47;100841.71;645799;221;23887;-77
2021/05/29 00:43:16;;;;;;;5.90;3.17;;;;;;;13.26;82.02;100844.56;633961;225;28122;-76
2021/05/29 00:45:44;;;;;;;3.60;3.30;;;;;;;13.14;83.48;100837.86;629522;225;24908;-77
2021/05/29 00:48:12;;;;;;;3.80;3.43;;;;;;;13.19;81.79;100836.95;648229;221;24878;-77
2021/05/29 00:50:48;;;;;;;3.27;2.97;;;;;;;13.11;82.21;100833.75;641428;221;24907;-78
2021/05/29 00:53:16;;;;;;;4.33;3.80;;;;;;;13.15;82.13;100831.17;636560;222;24917;-77
2021/05/29 00:55:44;;;;;;;4.97;3.70;;;;;;;13.20;81.54;100820.31;633898;225;24899;-77
2021/05/29 00:58:12;;;;;;;5.43;3.70;;;;;;;13.13;82.12;100821.84;640734;221;24884;-77
2021/05/29 01:00:40;;;;;;;3.33;3.10;;;;;;;13.12;82.53;100825.44;641190;221;23894;-77
2021/05/29 01:03:08;;;;;;;3.50;2.90;;;;;;;13.06;82.96;100823.72;644785;221;25157;-77
2021/05/29 01:05:36;;;;;;;4.67;3.13;;;;;;;13.04;82.09;100824.36;643966;221;25341;-77
2021/05/29 01:08:04;;;;;;;6.33;3.07;;;;;;;12.98;83.68;100822.83;634545;225;24906;-77
2021/05/29 01:10:32;;;;;;;4.50;3.00;;;;;;;12.92;83.99;100826.82;645202;221;23928;-77
2021/05/29 01:13:02;;;;;;;3.43;3.13;;;;;;;12.86;83.96;100823.50;643867;221;24879;-77
2021/05/29 01:15:34;;;;;;;6.37;3.40;;;;;;;12.82;83.99;100821.33;641705;222;25010;-77
2021/05/29 01:17:56;;;;;;;3.30;3.00;;;;;;;12.75;84.27;100824.50;639891;221;24853;-77
2021/05/29 01:20:24;;;;;;;3.30;2.60;;;;;;;12.73;83.88;100825.61;639398;221;25235;-77
2021/05/29 01:22:52;;;;;;;3.47;2.80;;;;;;;12.73;84.63;100826.92;648208;220;27067;-76
2021/05/29 01:25:21;;;;;;;5.03;2.73;;;;;;;12.68;84.58;100831.77;642598;221;24864;-77
2021/05/29 01:27:54;;;;;;;4.70;3.03;;;;;;;12.61;85.13;100828.06;639339;221;23885;-77
2021/05/29 01:30:22;;;;;;;4.47;3.17;;;;;;;12.41;86.63;100840.36;644207;221;23895;-76
2021/05/29 01:32:50;;;;;;;4.50;3.10;;;;;;;12.35;87.22;100836.52;641943;221;24853;-76
2021/05/29 01:35:18;;;;;;;4.00;3.60;;;;;;;12.21;87.93;100842.66;644417;221;24872;-76
2021/05/29 01:37:46;;;;;;;9.87;3.60;;;;;;;12.14;89.54;100850.23;644776;219;28089;-77
2021/05/29 01:40:14;;;;;;;5.33;3.50;;;;;;;12.05;89.31;100845.35;644837;221;24925;-77
2021/05/29 01:42:42;;;;;;;4.00;3.40;;;;;;;11.92;88.69;100846.11;644477;220;28079;-77
2021/05/29 01:45:11;;;;;;;3.97;3.40;;;;;;;11.75;90.19;100858.03;642906;221;25127;-76
2021/05/29 01:47:41;;;;;;;5.35;3.90;;;;;;;11.85;90.95;100861.50;636081;220;32760;-77
2021/05/29 01:50:08;;;;;;;3.53;3.20;;;;;;;11.81;90.62;100856.19;641464;221;23757;-76
2021/05/29 01:52:44;;;;;;;4.70;3.70;;;;;;;11.84;89.67;100844.70;639939;221;25967;-77
2021/05/29 01:55:12;;;;;;;4.33;3.90;;;;;;;11.87;90.12;100843.94;646040;221;24835;-77
2021/05/29 01:57:40;;;;;;;7.50;3.60;;;;;;;11.93;88.88;100844.33;640776;220;24859;-77
2021/05/29 02:00:09;;;;;;;6.90;3.90;;;;;;;12.10;88.58;100847.05;644006;221;43193;-76
2021/05/29 02:02:38;;;;;;;7.00;3.87;;;;;;;11.96;88.89;100846.66;645504;221;28140;-77
2021/05/29 02:05:11;;;;;;;4.17;3.77;;;;;;;11.98;87.96;100842.97;630637;225;24904;-77
2021/05/29 02:07:39;;;;;;;6.00;4.57;;;;;;;11.80;89.37;100856.34;626202;225;24978;-77
2021/05/29 02:10:08;;;;;;;4.83;4.03;;;;;;;11.83;89.77;100861.30;634916;222;32703;-76
2021/05/29 02:12:39;;;;;;;6.93;4.47;;;;;;;11.59;90.29;100855.14;650331;221;24890;-77
2021/05/29 02:15:08;;;;;;;4.90;4.40;;;;;;;11.57;90.38;100854.45;647958;221;24855;-77
2021/05/29 02:17:36;;;;;;;4.30;3.90;;;;;;;11.56;90.17;100847.60;649977;221;24025;-77
2021/05/29 02:20:06;;;;;;;3.73;3.43;;;;;;;11.44;90.96;100850.80;644634;221;23903;-76
2021/05/29 02:22:34;;;;;;;4.10;3.80;;;;;;;11.40;91.43;100851.19;635282;225;24764;-77
2021/05/29 02:25:02;;;;;;;4.37;3.93;;;;;;;11.28;91.87;100853.11;645970;221;25176;-77
2021/05/29 02:27:30;;;;;;;3.80;3.47;;;;;;;11.20;91.98;100861.58;641202;221;24896;-77
2021/05/29 02:29:58;;;;;;;4.67;3.83;;;;;;;11.15;91.97;100857.25;642000;221;24923;-78
2021/05/29 02:32:26;;;;;;;5.70;3.90;;;;;;;11.09;92.82;100861.67;634842;225;24944;-77
2021/05/29 02:34:54;;;;;;;5.53;3.60;;;;;;;11.01;93.48;100861.53;646513;220;23900;-76
2021/05/29 02:37:22;;;;;;;5.83;4.07;;;;;;;10.99;93.56;100860.36;644938;221;23939;-76
2021/05/29 02:39:50;;;;;;;5.07;4.30;;;;;;;10.93;93.61;100871.76;639995;223;24956;-76
2021/05/29 02:42:18;;;;;;;5.23;4.73;;;;;;;10.90;93.29;100870.25;641655;220;28114;-77
2021/05/29 02:44:46;;;;;;;6.50;5.53;;;;;;;10.92;93.69;100868.81;647258;220;24898;-76
2021/05/29 02:47:14;;;;;;;5.27;3.90;;;;;;;10.85;93.67;100865.92;646425;220;24864;-77
2021/05/29 02:49:42;;;;;;;8.93;4.37;;;;;;;10.86;93.46;100864.14;628317;224;27109;-77
2021/05/29 02:52:10;;;;;;;8.47;4.27;;;;;;;10.85;92.91;100865.92;649335;220;24884;-76
2021/05/29 02:54:41;;;;;;;6.63;4.70;;;;;;;10.79;93.84;100865.60;631684;225;24953;-77
2021/05/29 02:57:06;;;;;;;5.10;4.60;;;;;;;10.77;93.63;100867.04;628699;225;24912;-77
2021/05/29 02:59:34;;;;;;;4.90;4.17;;;;;;;10.75;94.25;100875.45;633618;225;24919;-76
2021/05/29 03:02:03;;;;;;;7.93;4.23;;;;;;;10.82;93.58;100868.76;627761;225;24915;-76
2021/05/29 03:04:31;;;;;;;5.87;4.37;;;;;;;10.88;92.63;100875.24;644949;221;32659;-76
2021/05/29 03:06:58;;;;;;;6.50;5.07;;;;;;;10.73;93.35;100877.37;647644;221;26949;-77
2021/05/29 03:09:26;;;;;;;5.30;4.20;;;;;;;10.72;92.73;100885.30;642971;221;24907;-77
2021/05/29 03:11:54;;;;;;;5.10;4.60;;;;;;;10.54;93.25;100891.08;644015;221;24841;-77
2021/05/29 03:14:22;;;;;;;4.70;4.27;;;;;;;10.58;93.66;100893.79;646636;221;23871;-76
2021/05/29 03:16:50;;;;;;;4.90;4.40;;;;;;;10.62;93.55;100891.75;650573;221;24863;-76
2021/05/29 03:19:18;;;;;;;4.60;4.20;;;;;;;10.59;93.47;100896.73;633725;225;24905;-76
2021/05/29 03:21:46;;;;;;;7.43;4.27;;;;;;;10.56;93.35;100900.90;645440;221;24857;-77
2021/05/29 03:24:14;;;;;;;6.47;5.27;;;;;;;10.55;93.76;100901.82;641229;220;32816;-77
2021/05/29 03:26:42;;;;;;;5.73;4.87;;;;;;;10.47;93.37;100896.45;629072;225;23970;-76
2021/05/29 03:29:10;;;;;;;5.43;4.20;;;;;;;10.42;94.36;100898.63;640571;222;24902;-77
2021/05/29 03:31:38;;;;;;;6.40;5.00;;;;;;;10.34;94.09;100897.94;640091;221;32827;-76
2021/05/29 03:34:06;;;;;;;5.67;4.80;;;;;;;10.28;94.28;100907.56;645689;221;24903;-77
2021/05/29 03:36:34;;;;;;;6.23;5.30;;;;;;;10.34;94.40;100910.94;638678;221;32806;-76
2021/05/29 03:39:02;;;;;;;6.13;5.50;;;;;;;10.21;95.06;100914.64;636428;225;32341;-77
2021/05/29 03:41:30;;;;;;;5.97;4.63;;;;;;;10.19;95.80;100923.05;648594;221;24880;-77
2021/05/29 03:43:58;;;;;;;5.40;4.53;;;;;;;10.18;94.95;100919.63;642502;222;25073;-79
2021/05/29 03:46:26;;;;;;;10.37;5.23;;;;;;;10.17;94.94;100921.87;631601;225;24879;-77
2021/05/29 03:48:54;;;;;;;6.10;5.40;;;;;;;10.19;95.32;100922.56;643533;221;29212;-76
2021/05/29 03:51:22;;;;;;;5.80;4.77;;;;;;;10.30;94.58;100925.16;652080;218;27090;-76
2021/05/29 03:53:50;;;;;;;5.07;4.40;;;;;;;10.34;94.68;100920.52;650387;220;26989;-76
2021/05/29 03:56:18;;;;;;;8.20;5.73;;;;;;;10.50;93.52;100922.20;635927;225;24909;-77
2021/05/29 03:58:46;;;;;;;8.20;5.00;;;;;;;10.69;93.31;100920.18;642898;221;28123;-77
2021/05/29 04:01:14;;;;;;;5.30;4.80;;;;;;;10.90;91.65;100921.47;641135;220;24911;-77
2021/05/29 04:03:42;;;;;;;7.97;5.03;;;;;;;10.90;90.98;100914.48;647770;221;23883;-77
2021/05/29 04:06:10;;;;;;;5.53;5.03;;;;;;;10.84;91.27;100919.37;627308;226;25089;-77
2021/05/29 04:08:38;;;;;;;8.80;5.00;;;;;;;11.15;89.56;100908.50;644940;221;43333;-77
2021/05/29 04:11:06;;;;;;;7.13;5.00;;;;;;;11.16;89.90;100914.05;647934;221;25453;-77
2021/05/29 04:13:34;;;;;;;8.40;4.70;;;;;;;11.47;88.24;100920.03;636321;221;33081;-76
2021/05/29 04:16:02;;;;;;;9.50;5.67;;;;;;;11.28;88.66;100921.64;629558;225;28112;-77
2021/05/29 04:18:30;;;;;;;6.80;5.33;;;;;;;11.19;88.86;100920.29;646630;221;24878;-77
2021/05/29 04:20:58;;;;;;;8.03;5.07;;;;;;;11.22;88.62;100911.73;645314;220;28059;-76
2021/05/29 04:23:26;;;;;;;6.13;4.80;;;;;;;11.35;88.30;100923.22;643325;221;24935;-77
2021/05/29 04:25:54;;;;;;;5.70;4.63;;;;;;;11.43;88.65;100920.79;633311;225;24910;-77
2021/05/29 04:28:22;;;;;;;10.47;5.10;;;;;;;11.82;87.40;100921.72;630352;224;24896;-77
2021/05/29 04:30:50;;;;;;;4.70;3.97;;;;;;;11.89;86.14;100921.51;627191;226;23942;-77
2021/05/29 04:33:18;;;;;;;5.37;4.47;;;;;;;12.01;86.93;100926.12;644029;221;27026;-77
2021/05/29 04:35:46;;;;;;;5.03;4.40;;;;;;;12.09;85.51;100918.89;638668;222;23869;-77
2021/05/29 04:38:14;;;;;;;5.10;4.17;;;;;;;12.16;84.95;100910.41;626007;225;23930;-78
2021/05/29 04:40:42;;;;;;;4.70;3.97;;;;;;;12.42;83.71;100914.56;642848;221;24856;-78
2021/05/29 04:43:09;;;;;;;3.80;3.40;;;;;;;12.52;83.91;100920.23;632693;225;24899;-76
2021/05/29 04:45:37;;;;;;;4.13;3.77;;;;;;;12.65;83.03;100925.98;639822;222;24923;-77
2021/05/29 04:48:07;;;;;;;4.92;4.17;;;;;;;13.05;82.39;100923.11;641787;220;43366;-76
2021/05/29 04:51:11;;;;;;;4.50;3.83;;;;;;;12.78;82.55;100923.40;634789;225;24914;-77
2021/05/29 04:53:04;;;;;;;4.80;4.10;;;;;;;12.90;82.01;100927.15;644533;221;24914;-76
2021/05/29 04:55:32;;;;;;;4.90;3.87;;;;;;;12.94;82.07;100934.55;646174;221;24937;-76
2021/05/29 04:58:00;;;;;;;4.63;4.17;;;;;;;12.80;82.87;100928.47;649995;220;24860;-77
2021/05/29 05:00:28;;;;;;;5.97;4.27;;;;;;;12.81;83.13;100935.83;635032;225;24921;-77
2021/05/29 05:02:56;;;;;;;5.40;4.10;;;;;;;12.74;82.52;100927.75;641451;221;24937;-76
2021/05/29 05:05:24;;;;;;;6.70;3.73;;;;;;;12.81;81.73;100922.31;642663;221;24862;-77
2021/05/29 05:07:52;;;;;;;4.50;3.93;;;;;;;13.14;81.24;100920.12;632848;224;24930;-76
2021/05/29 05:10:20;;;;;;;5.03;4.13;;;;;;;12.96;81.32;100920.89;650304;220;24925;-77
2021/05/29 05:12:48;;;;;;;5.87;4.33;;;;;;;12.97;82.30;100925.63;650044;220;30349;-76
2021/05/29 05:15:16;;;;;;;5.20;3.93;;;;;;;13.08;81.26;100924.13;646595;220;24899;-77
2021/05/29 05:17:45;;;;;;;6.50;3.80;;;;;;;13.11;81.45;100933.48;627956;225;24886;-76
2021/05/29 05:20:14;;;;;;;5.33;3.80;;;;;;;13.08;81.58;100941.91;629279;225;24959;-76
2021/05/29 05:22:42;;;;;;;5.07;4.30;;;;;;;13.10;81.98;100934.45;649720;221;23939;-76
2021/05/29 05:25:12;;;;;;;5.77;3.73;;;;;;;13.56;81.73;100939.61;629747;225;24936;-76
2021/05/29 05:27:40;;;;;;;7.00;3.70;;;;;;;13.80;80.03;100931.70;639784;221;43468;-77
2021/05/29 05:30:09;;;;;;;5.17;3.90;;;;;;;13.83;80.26;100931.39;630261;225;25157;-77
2021/05/29 05:32:37;;;;;;;5.13;3.63;;;;;;;13.88;78.62;100929.14;647565;221;24897;-76
2021/05/29 05:35:08;;;;;;;5.60;3.97;;;;;;;14.08;79.53;100937.20;635835;222;28108;-77
2021/05/29 05:37:34;;;;;;;3.83;3.13;;;;;;;14.13;79.80;100939.36;636995;225;23936;-77
2021/05/29 05:40:02;;;;;;;5.73;3.50;;;;;;;14.13;77.67;100928.41;643057;221;24883;-77
2021/05/29 05:42:30;;;;;;;4.00;3.63;;;;;;;14.05;78.25;100932.73;636193;225;24901;-74
2021/05/29 05:44:58;;;;;;;5.43;3.90;;;;;;;14.06;79.13;100936.50;637348;225;24886;-74
2021/05/29 05:47:26;;;;;;;6.27;4.10;;;;;;;14.24;78.76;100929.97;643526;220;24160;-74
2021/05/29 05:49:54;;;;;;;4.70;3.10;;;;;;;14.36;77.50;100937.10;641804;222;23894;-74
2021/05/29 05:52:22;;;;;;;6.07;3.90;;;;;;;14.16;77.86;100937.25;644171;221;24175;-74
2021/05/29 05:54:50;;;;;;;3.73;3.27;;;;;;;14.02;79.14;100941.70;632372;225;24915;-74
2021/05/29 05:57:18;;;;;;;5.70;3.43;;;;;;;14.12;78.10;100943.77;642214;221;25228;-74
2021/05/29 05:59:46;;;;;;;3.73;2.93;;;;;;;14.25;77.32;100934.23;641689;221;24914;-75
2021/05/29 06:02:14;;;;;;;3.93;2.83;;;;;;;14.40;75.89;100935.33;627319;225;24924;-75
2021/05/29 06:04:42;;;;;;;4.90;3.07;;;;;;;14.19;75.80;100931.71;644637;221;25140;-75
2021/05/29 06:07:10;;;;;;;6.77;3.70;;;;;;;14.41;76.79;100944.00;640104;221;32749;-74
2021/05/29 06:09:38;;;;;;;4.47;3.30;;;;;;;14.79;75.16;100939.73;629527;225;38636;-74
2021/05/29 06:12:06;;;;;;;3.77;3.15;;;;;;;14.54;74.32;100941.36;639615;221;33124;-74
2021/05/29 06:19:42;;;;;;;4.93;3.00;;;;;;;14.69;75.07;100943.41;628720;225;24923;-75
2021/05/29 06:22:10;;;;;;;3.30;3.00;;;;;;;14.84;74.99;100945.80;644217;221;24173;-74
2021/05/29 06:24:38;;;;;;;4.07;2.70;;;;;;;14.71;75.47;100952.76;635128;222;23944;-74
2021/05/29 06:27:07;;;;;;;3.50;2.90;;;;;;;14.61;74.92;100954.64;648189;221;24190;-74
2021/05/29 06:29:34;;;;;;;4.07;3.07;;;;;;;14.71;74.71;100956.69;646356;221;23934;-74
2021/05/29 06:32:03;;;;;;;3.30;3.00;;;;;;;15.19;75.08;100959.73;635719;221;32674;-74
2021/05/29 06:34:31;;;;;;;5.67;3.13;;;;;;;14.88;73.19;100951.55;631335;225;23953;-74
2021/05/29 06:36:59;;;;;;;4.73;2.97;;;;;;;14.96;73.91;100949.80;644686;221;24227;-75
2021/05/29 06:39:27;;;;;;;3.70;2.87;;;;;;;15.31;73.91;100957.98;651062;220;23888;-74
2021/05/29 06:41:55;;;;;;;5.87;2.50;;;;;;;15.20;72.44;100952.20;637680;225;26073;-74
2021/05/29 06:44:23;;;;;;;3.83;2.80;;;;;;;15.76;72.04;100951.60;644358;221;38238;-74
2021/05/29 06:46:51;;;;;;;6.53;2.87;;;;;;;15.74;70.41;100943.08;636354;221;32909;-74
2021/05/29 06:49:20;;;;;;;4.80;2.70;;;;;;;15.77;70.41;100942.78;635414;224;23765;-74
2021/05/29 06:51:53;;;;;;;2.90;2.60;;;;;;;15.61;70.17;100946.65;643731;221;27058;-74
2021/05/29 06:54:25;;;;;;;3.07;2.77;;;;;;;15.95;71.55;100950.02;644645;221;24934;-74
2021/05/29 06:59:24;;;;;;;4.33;2.47;;;;;;;15.72;71.24;100954.23;633665;225;30402;-74
2021/05/29 07:01:52;;;;;;;3.90;3.20;;;;;;;16.01;70.60;100955.92;630105;225;25151;-74
2021/05/29 07:04:19;;;;;;;3.87;3.10;;;;;;;15.97;71.16;100966.91;631079;225;26161;-74
2021/05/29 07:06:47;;;;;;;3.50;2.90;;;;;;;16.37;68.61;100956.94;637267;221;32735;-74
2021/05/29 07:09:18;;;;;;;4.62;2.80;;;;;;;16.87;68.54;100947.53;629678;224;32875;-75
2021/05/29 07:11:43;;;;;;;3.40;2.63;;;;;;;16.62;69.47;100946.75;643273;221;22803;-74
2021/05/29 07:14:11;;;;;;;3.00;2.30;;;;;;;16.42;67.71;100948.06;627592;225;24963;-74
2021/05/29 07:16:40;;;;;;;3.87;2.80;;;;;;;16.59;69.70;100947.55;644392;220;23919;-75
2021/05/29 07:19:07;;;;;;;3.17;2.83;;;;;;;17.20;69.12;100950.91;639817;220;23858;-75
2021/05/29 07:21:36;;;;;;;3.40;2.50;;;;;;;17.32;66.43;100942.65;627682;226;24931;-74
2021/05/29 07:24:04;;;;;;;5.75;2.92;;;;;;;17.49;67.37;100946.34;632766;221;32812;-75
2021/05/29 07:26:32;;;;;;;4.47;2.67;;;;;;;16.63;67.01;100943.14;641398;220;43330;-74
2021/05/29 07:29:00;;;;;;;3.20;2.90;;;;;;;16.52;69.36;100955.29;643281;220;22797;-74
2021/05/29 07:31:28;;;;;;;3.20;2.77;;;;;;;16.53;68.44;100957.42;627172;225;23943;-72
2021/05/29 07:33:56;;;;;;;3.40;3.07;;;;;;;17.05;69.07;100956.55;646129;220;23943;-73
2021/05/29 07:36:24;;;;;;;3.07;2.87;;;;;;;17.09;68.51;100959.15;640443;222;23890;-73
2021/05/29 07:38:52;;;;;;;2.40;2.20;;;;;;;16.88;67.88;100957.55;646496;220;23948;-72
2021/05/29 07:41:20;;;;;;;3.40;2.90;;;;;;;17.14;66.78;100947.62;645287;221;23898;-73
2021/05/29 07:43:49;;;;;;;3.63;2.70;;;;;;;17.01;66.48;100947.83;633644;225;27115;-73
2021/05/29 07:46:17;;;;;;;4.63;2.67;;;;;;;17.27;68.26;100952.84;648508;221;24186;-72
2021/05/29 07:48:44;;;;;;;4.30;2.77;;;;;;;17.56;66.89;100950.41;645177;221;24879;-73
2021/05/29 07:51:12;;;;;;;3.20;2.80;;;;;;;17.94;67.21;100955.31;642851;221;24900;-73
2021/05/29 07:53:40;;;;;;;4.73;3.00;;;;;;;17.26;66.18;100934.11;632165;225;23957;-72
2021/05/29 07:56:08;;;;;;;2.70;2.23;;;;;;;17.53;65.73;100955.20;646914;221;28169;-73
2021/05/29 07:58:37;;;;;;;3.10;2.37;;;;;;;17.53;68.61;100952.06;632070;224;23991;-72
2021/05/29 08:01:04;;;;;;;4.80;2.67;;;;;;;17.52;67.77;100939.91;626534;225;25260;-72
2021/05/29 08:03:32;;;;;;;3.73;3.00;;;;;;;17.94;66.82;100950.05;640804;221;25236;-73
2021/05/29 08:06:03;;;;;;;4.10;2.70;;;;;;;17.89;63.23;100949.77;644619;221;24885;-73
2021/05/29 08:08:28;;;;;;;2.93;2.50;;;;;;;17.68;65.21;100947.74;638412;225;23905;-73
2021/05/29 08:10:59;;;;;;;2.70;2.40;;;;;;;18.02;65.15;100949.19;633725;225;23954;-73
2021/05/29 08:13:24;;;;;;;3.57;2.50;;;;;;;18.24;63.88;100942.27;639574;221;32710;-72
2021/05/29 08:15:52;;;;;;;3.83;3.00;;;;;;;18.02;63.53;100938.16;631147;226;23958;-73
2021/05/29 08:18:20;;;;;;;3.53;2.20;;;;;;;18.25;65.52;100952.61;647487;221;23916;-73
2021/05/29 08:20:48;;;;;;;7.43;3.10;;;;;;;18.59;65.84;100948.22;640685;221;23892;-73
2021/05/29 08:23:17;;;;;;;4.90;2.07;;;;;;;18.58;62.26;100940.47;642680;224;23884;-75
2021/05/29 08:25:46;;;;;;;2.90;2.10;;;;;;;18.91;61.79;100937.05;626337;226;23957;-75
2021/05/29 08:28:12;;;;;;;2.40;1.90;;;;;;;18.68;62.67;100937.93;630907;225;24976;-75
2021/05/29 08:30:40;;;;;;;4.80;2.37;;;;;;;18.67;64.56;100935.48;641222;221;23892;-75
2021/05/29 08:33:08;;;;;;;4.10;2.90;;;;;;;18.65;59.36;100923.80;646593;221;23912;-74
2021/05/29 08:35:36;;;;;;;2.17;1.97;;;;;;;18.99;61.86;100925.08;637371;225;23939;-74
2021/05/29 08:38:04;;;;;;;2.00;1.90;;;;;;;19.07;61.63;100933.41;631487;225;25227;-75
2021/05/29 08:40:32;;;;;;;4.20;2.33;;;;;;;18.96;61.19;100934.17;644961;220;28138;-75
2021/05/29 08:43:00;;;;;;;5.97;2.20;;;;;;;19.21;59.55;100931.26;634418;225;23928;-75
2021/05/29 08:45:28;;;;;;;2.77;2.07;;;;;;;19.10;62.31;100926.44;650731;220;24196;-75
2021/05/29 08:47:57;;;;;;;3.20;2.17;;;;;;;19.28;61.43;100926.39;641303;220;23922;-74
2021/05/29 08:50:25;;;;;;;5.23;2.13;;;;;;;19.26;63.87;100940.75;627206;225;30648;-74
2021/05/29 08:52:52;;;;;;;2.40;2.20;;;;;;;19.42;63.16;100946.31;633865;225;23918;-75
2021/05/29 08:55:20;;;;;;;2.00;1.70;;;;;;;19.83;61.15;100933.41;640561;224;23952;-75
2021/05/29 08:57:49;;;;;;;3.35;2.10;;;;;;;19.87;60.01;100930.72;626952;225;32881;-75
2021/05/29 09:00:17;;;;;;;3.15;1.80;;;;;;;19.96;58.67;100919.01;623600;225;33128;-74
2021/05/29 09:02:55;;;;;;;2.00;1.70;;;;;;;19.66;54.62;100910.89;641647;221;22831;-75
2021/05/29 09:05:26;;;;;;;2.00;1.80;;;;;;;20.11;54.52;100903.91;640530;220;32764;-75
2021/05/29 09:08:03;;;;;;;4.43;1.90;;;;;;;20.19;58.72;100911.40;643264;220;22762;-75
2021/05/29 09:10:31;;;;;;;1.53;1.43;;;;;;;20.01;58.29;100919.28;634718;225;23934;-74
2021/05/29 09:13:01;;;;;;;10.40;2.07;;;;;;;19.25;55.48;100920.14;647782;221;23915;-75
2021/05/29 09:15:40;;;;;;;3.70;2.10;;;;;;;19.55;57.64;100919.61;645818;221;23881;-74
2021/05/29 09:18:08;;;;;;;5.20;1.67;;;;;;;19.20;58.16;100919.08;644130;221;24257;-74
2021/05/29 09:20:36;;;;;;;3.27;2.10;;;;;;;19.27;56.85;100910.72;633768;225;23967;-74
2021/05/29 09:23:04;;;;;;;2.00;1.80;;;;;;;19.84;60.33;100920.52;639044;221;33004;-74
2021/05/29 09:25:34;;;;;;;3.80;1.40;;;;;;;20.00;56.78;100920.28;634716;221;32885;-74
2021/05/29 09:28:02;;;;;;;5.33;1.80;;;;;;;19.73;53.81;100907.84;648864;221;22767;-74
2021/05/29 09:30:38;;;;;;;2.57;1.53;;;;;;;20.20;54.21;100905.11;635669;225;23985;-73
2021/05/29 09:33:12;;;;;;;2.20;1.50;;;;;;;19.78;54.17;100910.22;643585;221;23888;-73
2021/05/29 09:35:40;;;;;;;5.30;1.53;;;;;;;19.89;53.76;100902.80;627093;225;24357;-73
2021/05/29 09:38:09;;;;;;;2.40;1.40;;;;;;;20.00;54.14;100908.41;645333;221;23930;-73
2021/05/29 09:40:36;;;;;;;2.93;1.40;;;;;;;20.28;53.49;100905.80;631989;225;24184;-73
2021/05/29 09:43:06;;;;;;;2.80;1.37;;;;;;;20.59;55.74;100913.36;639092;221;32649;-73
2021/05/29 09:45:32;;;;;;;3.13;1.50;;;;;;;20.94;53.03;100904.09;648989;221;22784;-73
2021/05/29 09:48:15;;;;;;;1.87;1.40;;;;;;;20.25;52.62;100906.66;627675;224;23914;-73
2021/05/29 09:50:54;;;;;;;1.70;1.43;;;;;;;20.39;51.30;100912.36;646055;220;23939;-73
2021/05/29 09:53:26;;;;;;;2.67;1.37;;;;;;;20.37;54.42;100911.23;639370;221;23892;-73
2021/05/29 09:55:54;;;;;;;2.53;2.00;;;;;;;20.54;52.17;100909.14;629777;226;23920;-73
2021/05/29 09:58:22;;;;;;;3.00;2.37;;;;;;;20.41;53.15;100914.33;632836;224;23938;-73
2021/05/29 10:00:51;;;;;;;4.63;1.43;;;;;;;20.60;54.78;100904.42;627047;225;23947;-73
2021/05/29 10:03:19;;;;;;;2.03;1.23;;;;;;;20.45;51.67;100907.67;633354;225;23987;-73
2021/05/29 10:05:48;;;;;;;6.53;1.73;;;;;;;20.88;57.99;100916.28;626823;226;25171;-73
2021/05/29 10:08:16;;;;;;;3.07;1.60;;;;;;;20.95;49.99;100911.83;645566;221;23931;-75
2021/05/29 10:10:43;;;;;;;2.50;1.60;;;;;;;20.69;55.25;100907.23;634749;225;23933;-74
2021/05/29 10:13:11;;;;;;;6.20;2.30;;;;;;;20.70;56.17;100917.30;649212;221;23923;-74
2021/05/29 10:15:39;;;;;;;3.60;1.90;;;;;;;21.12;51.83;100909.69;635129;221;33148;-74
2021/05/29 10:18:08;;;;;;;10.23;2.95;;;;;;;21.37;57.87;100923.23;637773;220;32684;-74
2021/05/29 10:20:36;;;;;;;3.50;1.93;;;;;;;20.66;54.94;100915.52;641172;220;22783;-74
2021/05/29 10:23:05;;;;;;;2.30;2.00;;;;;;;19.96;54.15;100916.37;641574;224;23909;-74
2021/05/29 10:25:33;;;;;;;3.23;2.13;;;;;;;20.42;54.92;100919.45;640922;223;24883;-73
2021/05/29 10:28:01;;;;;;;3.23;1.50;;;;;;;20.82;52.00;100917.05;641374;221;27036;-74
2021/05/29 10:30:31;;;;;;;2.50;1.90;;;;;;;21.17;53.64;100920.48;642067;224;25088;-74
2021/05/29 10:33:10;;;;;;;1.67;1.50;;;;;;;21.28;54.52;100919.97;651326;220;23908;-74
2021/05/29 10:35:38;;;;;;;1.63;1.53;;;;;;;20.58;52.38;100905.63;650676;221;26207;-74
2021/05/29 10:38:07;;;;;;;3.00;1.50;;;;;;;20.70;54.57;100919.44;646779;221;23996;-74
2021/05/29 10:40:36;;;;;;;2.17;2.00;;;;;;;20.60;52.00;100914.99;645886;220;24856;-74
2021/05/29 10:43:08;;;;;;;2.90;1.97;;;;;;;21.09;53.12;100910.57;642900;220;23921;-73
2021/05/29 10:45:35;;;;;;;1.87;1.73;;;;;;;21.31;51.01;100893.09;638580;220;23917;-74
2021/05/29 10:48:05;;;;;;;2.60;1.80;;;;;;;20.23;53.57;100906.03;627402;225;23931;-74
2021/05/29 10:50:43;;;;;;;3.67;2.23;;;;;;;20.44;53.85;100910.82;634184;225;23978;-73
2021/05/29 10:53:11;;;;;;;7.23;2.00;;;;;;;21.04;50.98;100905.88;628505;226;23985;-74
2021/05/29 10:55:39;;;;;;;2.05;1.70;;;;;;;21.57;52.35;100899.48;634497;221;32800;-73
2021/05/29 10:58:07;;;;;;;3.70;1.57;;;;;;;21.09;53.36;100895.52;647224;221;22823;-74
2021/05/29 11:00:50;;;;;;;4.60;1.60;;;;;;;21.60;49.90;100885.84;636065;225;28155;-74
2021/05/29 11:03:24;;;;;;;5.33;1.77;;;;;;;21.50;51.24;100891.51;640015;221;23952;-72
2021/05/29 11:05:51;;;;;;;2.30;1.50;;;;;;;21.61;48.17;100881.66;640739;221;23943;-72
2021/05/29 11:08:43;;;;;;;2.33;1.67;;;;;;;21.69;50.12;100879.86;643337;220;23949;-71
2021/05/29 11:11:36;;;;;;;1.83;1.60;;;;;;;21.34;51.20;100891.88;628624;225;23947;-72
2021/05/29 11:14:04;;;;;;;2.17;1.97;;;;;;;21.60;55.49;100903.05;623147;225;23939;-72
2021/05/29 11:16:57;;;;;;;1.83;1.57;;;;;;;21.70;53.80;100898.70;646075;220;23943;-72
2021/05/29 11:19:24;;;;;;;7.10;1.70;;;;;;;21.77;54.30;100901.65;629488;224;23996;-72
2021/05/29 11:21:59;;;;;;;2.62;1.70;;;;;;;22.25;54.74;100900.20;623809;226;43797;-72
2021/05/29 11:24:27;;;;;;;1.90;1.80;;;;;;;21.39;50.88;100880.17;646114;221;22797;-72
2021/05/29 11:26:56;;;;;;;1.83;1.40;;;;;;;21.83;53.31;100890.78;646801;221;23877;-72
2021/05/29 11:29:24;;;;;;;1.93;1.73;;;;;;;21.50;52.12;100879.59;644536;220;23941;-72
2021/05/29 11:31:53;;;;;;;2.60;1.40;;;;;;;20.57;53.71;100884.17;630016;225;32839;-74
2021/05/29 11:34:20;;;;;;;1.37;1.23;;;;;;;20.43;54.40;100889.88;645348;221;22797;-71
2021/05/29 11:36:48;;;;;;;2.30;1.47;;;;;;;21.43;57.72;100902.61;647661;222;23879;-72
2021/05/29 11:39:17;;;;;;;2.10;1.23;;;;;;;21.37;54.21;100903.89;647487;220;23893;-72